| time (UTC) | temp C | wind direction | speed KPH | gust KPH | rain 1hr cm | rain 24hr cm | rain mn cm | humidity % | barometer mb |
| 20260505093145 | 8 | 298 | 0.0 | 0.0 | 0.00 | 0.05 | 0.05 | 74 | 1045.6 |
| 20260505092642 | 8 | 312 | 0.0 | 0.0 | 0.00 | 0.05 | 0.05 | 65 | 1045.2 |
| 20260505092141 | 8 | 3 | 0.0 | 1.6 | 0.00 | 0.05 | 0.05 | 65 | 1045.1 |
| 20260505091637 | 8 | 306 | 0.0 | 1.6 | 0.00 | 0.05 | 0.05 | 65 | 1045.0 |
| 20260505091135 | 8 | 324 | 0.0 | 1.6 | 0.00 | 0.05 | 0.05 | 65 | 1045.0 |
| 20260505090633 | 8 | 345 | 0.0 | 3.2 | 0.00 | 0.05 | 0.05 | 63 | 1044.8 |
| 20260505090131 | 8 | 318 | 0.0 | 1.6 | 0.00 | 0.05 | 0.05 | 66 | 1044.7 |
| 20260505085628 | 8 | 120 | 1.6 | 3.2 | 0.00 | 0.05 | 0.05 | 68 | 1044.8 |
| 20260505085126 | 8 | 337 | 1.6 | 1.6 | 0.00 | 0.05 | 0.05 | 73 | 1044.8 |
| 20260505084624 | 8 | 339 | 0.0 | 1.6 | 0.00 | 0.05 | 0.05 | 79 | 1044.8 |
| 20260505084122 | 8 | 292 | 0.0 | 0.0 | 0.00 | 0.05 | 0.05 | 76 | 1044.8 |
| 20260505083619 | 8 | 271 | 0.0 | 0.0 | 0.00 | 0.05 | 0.05 | 74 | 1044.4 |
| 20260505083115 | 8 | 315 | 0.0 | 3.2 | 0.00 | 0.05 | 0.05 | 75 | 1043.5 |
| 20260505082611 | 8 | 48 | 4.8 | 8.0 | 0.00 | 0.05 | 0.05 | 77 | 1043.3 |
| 20260505082109 | 8 | 43 | 1.6 | 4.8 | 0.00 | 0.05 | 0.05 | 78 | 1043.3 |
| 20260505081604 | 8 | 346 | 0.0 | 1.6 | 0.00 | 0.05 | 0.05 | 77 | 1044.2 |
| 20260505081102 | 8 | 282 | 1.6 | 3.2 | 0.00 | 0.05 | 0.05 | 77 | 1044.7 |
| 20260505080558 | 9 | 270 | 1.6 | 3.2 | 0.00 | 0.05 | 0.05 | 77 | 1044.7 |
| 20260505080055 | 9 | 277 | 4.8 | 4.8 | 0.13 | 0.05 | 0.05 | 73 | 1043.9 |
| 20260505075550 | 9 | 308 | 1.6 | 8.0 | 0.13 | 0.05 | 0.05 | 72 | 1042.9 |
| 20260505075048 | 9 | 309 | 0.0 | 3.2 | 0.00 | 0.03 | 0.03 | 73 | 1043.5 |
| 20260505074544 | 9 | 290 | 3.2 | 3.2 | 0.00 | 0.03 | 0.03 | 73 | 1043.4 |
| 20260505074042 | 9 | 352 | 3.2 | 4.8 | 0.00 | 0.03 | 0.03 | 73 | 1042.8 |
| 20260505073539 | 9 | 342 | 0.0 | 3.2 | 0.00 | 0.03 | 0.03 | 73 | 1043.2 |
| 20260505073038 | 9 | 302 | 0.0 | 3.2 | 0.00 | 0.03 | 0.03 | 73 | 1043.8 |
| 20260505072533 | 9 | 280 | 0.0 | 1.6 | 0.00 | 0.03 | 0.03 | 74 | 1044.1 |
| 20260505072030 | 9 | 265 | 3.2 | 4.8 | 0.00 | 0.03 | 0.03 | 75 | 1044.2 |
| 20260505071525 | 9 | 275 | 3.2 | 3.2 | 0.00 | 0.03 | 0.03 | 76 | 1044.5 |
| 20260505071024 | 8 | 287 | 3.2 | 4.8 | 0.00 | 0.03 | 0.03 | 76 | 1044.2 |
| 20260505070520 | 8 | 308 | 0.0 | 0.0 | 0.00 | 0.03 | 0.03 | 80 | 1043.9 |
| 20260505070016 | 8 | 297 | 0.0 | 1.6 | 0.00 | 0.03 | 0.03 | 81 | 1044.5 |
| 20260505065512 | 8 | 285 | 0.0 | 0.0 | 0.00 | 0.03 | 0.03 | 83 | 1044.9 |
| 20260505065009 | 8 | 301 | 0.0 | 0.0 | 0.00 | 0.03 | 0.03 | 85 | 1045.0 |
| 20260505064506 | 8 | 287 | 0.0 | 1.6 | 0.00 | 0.03 | 0.03 | 86 | 1045.0 |
| 20260505064005 | 8 | 296 | 0.0 | 0.0 | 0.00 | 0.03 | 0.03 | 85 | 1045.1 |
| 20260505063501 | 8 | 284 | 1.6 | 3.2 | 0.00 | 0.03 | 0.03 | 85 | 1045.1 |
| 20260505062957 | 8 | 278 | 1.6 | 3.2 | 0.00 | 0.03 | 0.03 | 81 | 1045.0 |
| 20260505062454 | 9 | 299 | 0.0 | 0.0 | 0.00 | 0.03 | 0.03 | 79 | 1044.7 |
| 20260505061951 | 9 | 272 | 1.6 | 1.6 | 0.18 | 0.03 | 0.03 | 73 | 1044.6 |
| 20260505061449 | 10 | 290 | 1.6 | 3.2 | 0.18 | 0.03 | 0.03 | 66 | 1044.7 |
| 20260505060946 | 10 | 346 | 1.6 | 3.2 | 0.00 | 0.00 | 0.00 | 61 | 1044.4 |
| 20260505060443 | 10 | 15 | 3.2 | 4.8 | 0.00 | 0.00 | 0.00 | 58 | 1044.6 |
| 20260505055940 | 10 | 273 | 3.2 | 3.2 | 0.00 | 0.00 | 0.00 | 58 | 1044.8 |
| 20260505055436 | 10 | 315 | 4.8 | 8.0 | 0.00 | 0.00 | 0.00 | 57 | 1044.8 |
| 20260505054932 | 10 | 278 | 8.0 | 11.3 | 0.00 | 0.00 | 0.00 | 56 | 1044.7 |
| 20260505054430 | 10 | 316 | 3.2 | 3.2 | 0.00 | 0.00 | 0.00 | 56 | 1044.2 |
| 20260505053928 | 11 | 316 | 3.2 | 3.2 | 0.00 | 0.00 | 0.00 | 55 | 1044.0 |
| 20260505053425 | 11 | 302 | 6.4 | 9.7 | 0.00 | 0.00 | 0.00 | 54 | 1044.2 |
| 20260505052921 | 11 | 11 | 1.6 | 8.0 | 0.00 | 0.00 | 0.00 | 54 | 1044.1 |
| 20260505052418 | 11 | 260 | 1.6 | 8.0 | 0.00 | 0.00 | 0.00 | 56 | 1043.9 |
| 20260505051916 | 11 | 273 | 1.6 | 4.8 | 0.00 | 0.00 | 0.00 | 55 | 1043.6 |
| 20260505051413 | 11 | 356 | 6.4 | 12.9 | 0.00 | 0.00 | 0.00 | 54 | 1043.8 |
| 20260505050911 | 11 | 289 | 3.2 | 8.0 | 0.00 | 0.00 | 0.00 | 55 | 1043.8 |
| 20260505050409 | 11 | 224 | 4.8 | 12.9 | 0.00 | 0.00 | 0.00 | 53 | 1043.6 |
| 20260505041336 | 11 | 229 | 1.6 | 8.0 | 0.00 | 0.00 | 0.00 | 55 | 1043.5 |
| 20260505040833 | 12 | 11 | 6.4 | 12.9 | 0.00 | 0.00 | 0.00 | 53 | 1043.6 |
| 20260505040331 | 12 | 324 | 3.2 | 12.9 | 0.00 | 0.00 | 0.00 | 51 | 1043.8 |
| 20260505035827 | 12 | 265 | 8.0 | 14.5 | 0.00 | 0.00 | 0.00 | 48 | 1043.4 |
| 20260505035323 | 12 | 275 | 6.4 | 11.3 | 0.00 | 0.00 | 0.00 | 47 | 1043.4 |
| 20260505034821 | 13 | 351 | 9.7 | 27.4 | 0.00 | 0.00 | 0.00 | 46 | 1043.6 |
| 20260505034317 | 13 | 320 | 6.4 | 12.9 | 0.00 | 0.00 | 0.00 | 46 | 1043.5 |
| 20260505033814 | 12 | 300 | 8.0 | 22.5 | 0.00 | 0.00 | 0.00 | 45 | 1043.2 |
| 20260505033311 | 12 | 298 | 4.8 | 9.7 | 0.00 | 0.00 | 0.00 | 46 | 1042.6 |
| 20260505032810 | 12 | 265 | 4.8 | 9.7 | 0.00 | 0.00 | 0.00 | 46 | 1042.9 |
| 20260505032305 | 13 | 282 | 8.0 | 16.1 | 0.00 | 0.00 | 0.00 | 45 | 1043.2 |
| 20260505031802 | 13 | 271 | 6.4 | 16.1 | 0.00 | 0.00 | 0.00 | 44 | 1043.1 |
| 20260505031253 | 13 | 290 | 8.0 | 12.9 | 0.00 | 0.00 | 0.00 | 44 | 1043.1 |
| 20260505030750 | 13 | 255 | 4.8 | 12.9 | 0.00 | 0.00 | 0.00 | 44 | 1042.9 |
| 20260505030246 | 13 | 320 | 4.8 | 11.3 | 0.00 | 0.00 | 0.00 | 44 | 1042.9 |
| 20260505025741 | 13 | 92 | 6.4 | 12.9 | 0.00 | 0.00 | 0.00 | 43 | 1042.6 |
| 20260505025240 | 13 | 283 | 3.2 | 14.5 | 0.00 | 0.00 | 0.00 | 44 | 1042.4 |
| 20260505024738 | 13 | 8 | 6.4 | 12.9 | 0.00 | 0.00 | 0.00 | 43 | 1042.4 |
| 20260505024235 | 13 | 301 | 8.0 | 16.1 | 0.00 | 0.00 | 0.00 | 43 | 1042.4 |
| 20260505023732 | 13 | 350 | 11.3 | 20.9 | 0.00 | 0.00 | 0.00 | 43 | 1042.2 |
| 20260505023229 | 13 | 14 | 6.4 | 17.7 | 0.00 | 0.00 | 0.00 | 43 | 1042.1 |
| 20260505022727 | 14 | 243 | 6.4 | 12.9 | 0.00 | 0.00 | 0.00 | 44 | 1042.5 |
| 20260505022224 | 14 | 312 | 11.3 | 20.9 | 0.00 | 0.00 | 0.00 | 42 | 1042.4 |
| 20260505021720 | 14 | 296 | 4.8 | 8.0 | 0.00 | 0.00 | 0.00 | 43 | 1042.0 |
| 20260505021218 | 14 | 39 | 4.8 | 20.9 | 0.00 | 0.00 | 0.00 | 42 | 1042.1 |
| 20260505020713 | 14 | 262 | 8.0 | 12.9 | 0.00 | 0.00 | 0.00 | 42 | 1041.8 |
| 20260505020209 | 14 | 258 | 8.0 | 17.7 | 0.00 | 0.00 | 0.00 | 41 | 1041.6 |
| 20260505015706 | 15 | 269 | 6.4 | 11.3 | 0.00 | 0.00 | 0.00 | 40 | 1041.4 |
| 20260505015202 | 15 | 247 | 6.4 | 11.3 | 0.00 | 0.00 | 0.00 | 40 | 1041.9 |
| 20260505014659 | 15 | 329 | 12.9 | 16.1 | 0.00 | 0.00 | 0.00 | 40 | 1041.6 |
| 20260505014156 | 15 | 257 | 8.0 | 17.7 | 0.00 | 0.00 | 0.00 | 39 | 1041.5 |
| 20260505013653 | 15 | 273 | 8.0 | 12.9 | 0.00 | 0.00 | 0.00 | 39 | 1041.2 |
| 20260505013150 | 15 | 266 | 9.7 | 11.3 | 0.00 | 0.00 | 0.00 | 40 | 1041.4 |
| 20260505012644 | 15 | 319 | 3.2 | 14.5 | 0.00 | 0.00 | 0.00 | 40 | 1041.1 |
| 20260505012140 | 16 | 35 | 3.2 | 12.9 | 0.00 | 0.00 | 0.00 | 40 | 1041.1 |
| 20260505011636 | 16 | 256 | 8.0 | 17.7 | 0.00 | 0.00 | 0.00 | 39 | 1040.6 |
| 20260505011133 | 17 | 247 | 9.7 | 17.7 | 0.00 | 0.00 | 0.00 | 37 | 1040.8 |
| 20260505010628 | 17 | 246 | 6.4 | 14.5 | 0.00 | 0.00 | 0.00 | 36 | 1040.2 |
| 20260505010125 | 17 | 315 | 6.4 | 14.5 | 0.00 | 0.00 | 0.00 | 35 | 1040.2 |
| 20260505005621 | 17 | 264 | 3.2 | 12.9 | 0.00 | 0.00 | 0.00 | 35 | 1040.1 |
| 20260505005118 | 17 | 118 | 4.8 | 11.3 | 0.00 | 0.00 | 0.00 | 35 | 1040.1 |
| 20260505004615 | 18 | 271 | 8.0 | 12.9 | 0.00 | 0.00 | 0.00 | 34 | 1040.2 |
| 20260505004112 | 18 | 305 | 9.7 | 22.5 | 0.00 | 0.00 | 0.00 | 34 | 1039.8 |
| 20260505003609 | 18 | 255 | 4.8 | 20.9 | 0.00 | 0.00 | 0.00 | 33 | 1039.6 |
| 20260505003107 | 18 | 280 | 1.6 | 11.3 | 0.00 | 0.00 | 0.00 | 34 | 1039.4 |
| 20260505002602 | 19 | 263 | 9.7 | 14.5 | 0.00 | 0.00 | 0.00 | 32 | 1039.3 |
| 20260505002101 | 20 | 149 | 4.8 | 11.3 | 0.00 | 0.00 | 0.00 | 32 | 1039.0 |
| 20260505001558 | 20 | 1 | 8.0 | 11.3 | 0.00 | 0.00 | 0.00 | 31 | 1039.1 |
| 20260505001055 | 20 | 357 | 8.0 | 9.7 | 0.00 | 0.00 | 0.00 | 32 | 1038.9 |
| 20260505000552 | 20 | 283 | 9.7 | 20.9 | 0.00 | 0.00 | 0.00 | 31 | 1039.0 |
| 20260505000050 | 21 | 38 | 17.7 | 25.7 | 0.00 | 0.00 | 0.00 | 31 | 1039.1 |
| 20260504235546 | 21 | 244 | 8.0 | 17.7 | 0.00 | 0.00 | 0.00 | 31 | 1038.9 |
| 20260504235043 | 22 | 44 | 6.4 | 22.5 | 0.00 | 0.00 | 0.00 | 32 | 1038.7 |
| 20260504234540 | 22 | 268 | 1.6 | 12.9 | 0.00 | 0.00 | 0.00 | 31 | 1038.4 |
| 20260504234037 | 22 | 97 | 4.8 | 16.1 | 0.00 | 0.00 | 0.00 | 31 | 1038.5 |
| 20260504233532 | 22 | 254 | 11.3 | 24.1 | 0.00 | 0.00 | 0.00 | 30 | 1038.4 |
| 20260504233029 | 23 | 299 | 8.0 | 11.3 | 0.00 | 0.00 | 0.00 | 30 | 1038.3 |
| 20260504232526 | 23 | 324 | 8.0 | 22.5 | 0.00 | 0.00 | 0.00 | 29 | 1038.4 |
| 20260504232024 | 23 | 264 | 8.0 | 14.5 | 0.00 | 0.00 | 0.00 | 30 | 1038.3 |
| 20260504231521 | 23 | 319 | 8.0 | 14.5 | 0.00 | 0.00 | 0.00 | 30 | 1038.2 |
| 20260504231016 | 23 | 268 | 17.7 | 24.1 | 0.00 | 0.00 | 0.00 | 29 | 1038.1 |
| 20260504230513 | 23 | 238 | 6.4 | 16.1 | 0.00 | 0.00 | 0.00 | 30 | 1038.0 |
| 20260504230012 | 24 | 244 | 6.4 | 25.7 | 0.00 | 0.00 | 0.00 | 28 | 1038.1 |
| 20260504225509 | 25 | 245 | 4.8 | 12.9 | 0.00 | 0.00 | 0.00 | 29 | 1038.0 |
| 20260504225006 | 24 | 298 | 4.8 | 12.9 | 0.00 | 0.00 | 0.00 | 28 | 1037.7 |
| 20260504224502 | 25 | 283 | 8.0 | 11.3 | 0.00 | 0.00 | 0.00 | 29 | 1037.9 |
| 20260504223959 | 24 | 246 | 6.4 | 16.1 | 0.00 | 0.00 | 0.00 | 28 | 1037.8 |
| 20260504223456 | 25 | 282 | 11.3 | 22.5 | 0.00 | 0.00 | 0.00 | 28 | 1037.4 |
| 20260504222951 | 25 | 1 | 8.0 | 24.1 | 0.00 | 0.00 | 0.00 | 28 | 1037.3 |
| 20260504222449 | 25 | 267 | 4.8 | 14.5 | 0.00 | 0.00 | 0.00 | 29 | 1037.4 |
| 20260504221946 | 25 | 237 | 12.9 | 17.7 | 0.00 | 0.00 | 0.00 | 28 | 1037.3 |
| 20260504221443 | 25 | 287 | 6.4 | 20.9 | 0.00 | 0.00 | 0.00 | 29 | 1037.1 |
| 20260504220941 | 25 | 300 | 12.9 | 16.1 | 0.00 | 0.00 | 0.00 | 28 | 1037.2 |
| 20260504220437 | 25 | 244 | 6.4 | 12.9 | 0.00 | 0.00 | 0.00 | 29 | 1037.0 |
| 20260504215934 | 25 | 298 | 6.4 | 12.9 | 0.00 | 0.00 | 0.00 | 28 | 1036.8 |
| 20260504215431 | 26 | 211 | 1.6 | 20.9 | 0.00 | 0.00 | 0.00 | 30 | 1036.7 |
| 20260504214927 | 26 | 265 | 8.0 | 14.5 | 0.00 | 0.00 | 0.00 | 29 | 1036.7 |
| 20260504214424 | 26 | 304 | 3.2 | 9.7 | 0.00 | 0.00 | 0.00 | 30 | 1036.5 |
| 20260504213920 | 26 | 290 | 4.8 | 8.0 | 0.00 | 0.00 | 0.00 | 31 | 1036.6 |
| 20260504213416 | 26 | 272 | 8.0 | 16.1 | 0.00 | 0.00 | 0.00 | 32 | 1036.6 |
| 20260504212914 | 26 | 283 | 9.7 | 25.7 | 0.00 | 0.00 | 0.00 | 32 | 1036.3 |
| 20260504212409 | 26 | 249 | 16.1 | 32.2 | 0.00 | 0.00 | 0.00 | 31 | 1036.3 |
| 20260504211908 | 27 | 261 | 9.7 | 25.7 | 0.00 | 0.00 | 0.00 | 33 | 1036.0 |
| 20260504211404 | 26 | 337 | 9.7 | 17.7 | 0.00 | 0.00 | 0.00 | 33 | 1036.1 |
| 20260504210901 | 26 | 323 | 6.4 | 16.1 | 0.00 | 0.00 | 0.00 | 33 | 1036.0 |
| 20260504210358 | 26 | 253 | 17.7 | 24.1 | 0.00 | 0.00 | 0.00 | 32 | 1036.1 |
| 20260504205855 | 26 | 266 | 11.3 | 16.1 | 0.00 | 0.00 | 0.00 | 32 | 1035.9 |
| 20260504205353 | 26 | 306 | 9.7 | 33.8 | 0.00 | 0.00 | 0.00 | 33 | 1036.3 |
| 20260504204851 | 26 | 258 | 8.0 | 27.4 | 0.00 | 0.00 | 0.00 | 33 | 1035.9 |
| 20260504204349 | 26 | 281 | 12.9 | 20.9 | 0.00 | 0.00 | 0.00 | 33 | 1036.0 |
| 20260504203848 | 26 | 262 | 9.7 | 12.9 | 0.00 | 0.00 | 0.00 | 34 | 1036.0 |
| 20260504203344 | 26 | 300 | 6.4 | 20.9 | 0.00 | 0.00 | 0.00 | 35 | 1036.3 |
| 20260504202840 | 26 | 278 | 9.7 | 20.9 | 0.00 | 0.00 | 0.00 | 33 | 1035.9 |
| 20260504202338 | 26 | 278 | 12.9 | 22.5 | 0.00 | 0.00 | 0.00 | 34 | 1036.3 |
| 20260504201834 | 26 | 241 | 11.3 | 14.5 | 0.00 | 0.00 | 0.00 | 31 | 1035.9 |
| 20260504201331 | 28 | 292 | 16.1 | 25.7 | 0.00 | 0.00 | 0.00 | 29 | 1036.1 |
| 20260504200829 | 28 | 271 | 11.3 | 17.7 | 0.00 | 0.00 | 0.00 | 29 | 1035.9 |
| 20260504200325 | 27 | 280 | 6.4 | 17.7 | 0.00 | 0.00 | 0.00 | 27 | 1036.0 |
| 20260504195821 | 27 | 248 | 6.4 | 14.5 | 0.00 | 0.00 | 0.00 | 29 | 1036.1 |
| 20260504195317 | 27 | 284 | 12.9 | 17.7 | 0.00 | 0.00 | 0.00 | 28 | 1036.1 |
| 20260504194814 | 27 | 270 | 6.4 | 25.7 | 0.00 | 0.00 | 0.00 | 29 | 1036.1 |
| 20260504194310 | 26 | 264 | 14.5 | 22.5 | 0.00 | 0.00 | 0.00 | 28 | 1036.3 |
| 20260504193807 | 27 | 264 | 17.7 | 22.5 | 0.00 | 0.00 | 0.00 | 26 | 1036.0 |
| 20260504193304 | 27 | 253 | 11.3 | 20.9 | 0.00 | 0.00 | 0.00 | 27 | 1036.0 |
| 20260504192803 | 27 | 280 | 8.0 | 20.9 | 0.00 | 0.00 | 0.00 | 27 | 1035.9 |
| 20260504192300 | 27 | 234 | 4.8 | 14.5 | 0.00 | 0.00 | 0.00 | 30 | 1035.9 |
| 20260504191759 | 27 | 275 | 3.2 | 17.7 | 0.00 | 0.00 | 0.00 | 33 | 1036.0 |
| 20260504191255 | 27 | 287 | 14.5 | 17.7 | 0.00 | 0.00 | 0.00 | 29 | 1035.9 |
| 20260504190751 | 27 | 311 | 8.0 | 20.9 | 0.00 | 0.00 | 0.00 | 29 | 1036.4 |
| 20260504190247 | 27 | 256 | 17.7 | 20.9 | 0.00 | 0.00 | 0.00 | 31 | 1036.5 |
| 20260504185744 | 27 | 280 | 11.3 | 22.5 | 0.00 | 0.00 | 0.00 | 29 | 1036.4 |
| 20260504185241 | 27 | 255 | 6.4 | 17.7 | 0.00 | 0.00 | 0.00 | 33 | 1036.3 |
| 20260504184737 | 27 | 258 | 14.5 | 17.7 | 0.00 | 0.00 | 0.00 | 31 | 1036.3 |
| 20260504184233 | 27 | 276 | 11.3 | 20.9 | 0.00 | 0.00 | 0.00 | 29 | 1036.4 |
| 20260504183729 | 26 | 254 | 19.3 | 32.2 | 0.00 | 0.00 | 0.00 | 29 | 1036.4 |
| 20260504183226 | 26 | 245 | 8.0 | 24.1 | 0.00 | 0.00 | 0.00 | 33 | 1036.6 |
| 20260504182724 | 26 | 278 | 16.1 | 27.4 | 0.00 | 0.00 | 0.00 | 31 | 1036.5 |
| 20260504182221 | 26 | 291 | 11.3 | 24.1 | 0.00 | 0.00 | 0.00 | 32 | 1036.3 |
| 20260504181719 | 26 | 249 | 8.0 | 24.1 | 0.00 | 0.00 | 0.00 | 34 | 1036.6 |
| 20260504181216 | 26 | 305 | 16.1 | 27.4 | 0.00 | 0.00 | 0.00 | 35 | 1036.4 |
| 20260504180715 | 26 | 295 | 14.5 | 24.1 | 0.00 | 0.00 | 0.00 | 32 | 1036.6 |
| 20260504180213 | 26 | 289 | 17.7 | 24.1 | 0.00 | 0.00 | 0.00 | 33 | 1036.5 |
| 20260504175710 | 26 | 271 | 19.3 | 25.7 | 0.00 | 0.00 | 0.00 | 34 | 1036.6 |
| 20260504175207 | 26 | 260 | 22.5 | 29.0 | 0.00 | 0.00 | 0.00 | 32 | 1036.5 |
| 20260504174705 | 26 | 273 | 9.7 | 24.1 | 0.00 | 0.00 | 0.00 | 33 | 1036.6 |
| 20260504174203 | 26 | 286 | 19.3 | 25.7 | 0.00 | 0.00 | 0.00 | 32 | 1036.4 |
| 20260504173659 | 26 | 258 | 8.0 | 16.1 | 0.00 | 0.00 | 0.00 | 33 | 1036.5 |
| 20260504173156 | 26 | 276 | 17.7 | 24.1 | 0.00 | 0.00 | 0.00 | 32 | 1036.4 |
| 20260504172652 | 26 | 299 | 14.5 | 22.5 | 0.00 | 0.00 | 0.00 | 32 | 1036.5 |
| 20260504172149 | 26 | 264 | 9.7 | 25.7 | 0.00 | 0.00 | 0.00 | 33 | 1036.5 |
| 20260504171645 | 26 | 268 | 16.1 | 24.1 | 0.00 | 0.00 | 0.00 | 31 | 1036.3 |
| 20260504171143 | 26 | 282 | 14.5 | 20.9 | 0.00 | 0.00 | 0.00 | 34 | 1036.4 |
| 20260504170639 | 26 | 175 | 4.8 | 20.9 | 0.00 | 0.00 | 0.00 | 33 | 1036.5 |
| 20260504170137 | 26 | 230 | 8.0 | 9.7 | 0.00 | 0.00 | 0.00 | 33 | 1036.1 |
| 20260504151022 | 22 | 243 | 3.2 | 12.9 | 0.00 | 0.00 | 0.00 | 49 | 1037.0 |
| 20260504150519 | 22 | 256 | 3.2 | 8.0 | 0.00 | 0.00 | 0.00 | 49 | 1037.1 |
| 20260504140945 | 19 | 213 | 1.6 | 3.2 | 0.00 | 0.00 | 0.00 | 53 | 1037.5 |
| 20260504140442 | 20 | 282 | 0.0 | 0.0 | 0.00 | 0.00 | 0.00 | 55 | 1037.5 |
| 20260504130406 | 14 | 238 | 1.6 | 3.2 | 0.00 | 0.00 | 0.00 | 67 | 1038.0 |
| 20260504110253 | 8 | 298 | 0.0 | 0.0 | 0.00 | 0.00 | 0.00 | 82 | 1038.3 |
| 20260504100211 | 8 | 299 | 0.0 | 0.0 | 0.00 | 0.00 | 0.00 | 83 | 1039.1 |